Time;durP1;ratioP1;P1;durP2;ratioP2;P2;SDS_P1;SDS_P2;PMS_P1;PMS_P2;Temp;Humidity;BMP_temperature;BMP_pressure;BME280_temperature;BME280_humidity;BME280_pressure;Samples;Min_cycle;Max_cycle;Signal;HPM_P1;HPM_P2
2021/01/06 00:01:23;;;;;;;33.73;19.10;;;;;;;0.26;94.07;100014.54;1750209;82;21603;-89
2021/01/06 00:03:50;;;;;;;33.50;18.85;;;;;;;0.24;94.11;100016.45;1746787;82;21160;-89
2021/01/06 00:06:27;;;;;;;36.83;19.20;;;;;;;0.17;94.08;100011.30;1735994;82;21132;-89
2021/01/06 00:08:54;;;;;;;34.55;19.42;;;;;;;0.12;94.09;100014.73;1727454;82;21174;-88
2021/01/06 00:11:23;;;;;;;30.95;19.52;;;;;;;0.08;94.09;100010.66;1756730;81;21187;-88
2021/01/06 00:13:50;;;;;;;31.73;19.40;;;;;;;0.05;94.09;100014.82;1730691;81;21147;-89
2021/01/06 00:16:18;;;;;;;26.25;15.72;;;;;;;0.02;94.07;100016.36;1756796;81;21386;-87
2021/01/06 00:18:46;;;;;;;27.90;17.60;;;;;;;0.00;94.05;100012.52;1756949;81;21176;-88
2021/01/06 00:21:14;;;;;;;25.82;18.00;;;;;;;0.03;94.06;100013.27;1756531;81;21171;-88
2021/01/06 00:23:41;;;;;;;24.05;15.95;;;;;;;0.02;94.05;100009.80;1753783;81;21158;-88
2021/01/06 00:26:08;;;;;;;24.32;18.07;;;;;;;-0.01;94.06;100006.10;1739863;81;21656;-88
2021/01/06 00:28:35;;;;;;;22.00;16.48;;;;;;;-0.02;94.03;100003.11;1744858;81;21578;-90
2021/01/06 00:31:03;;;;;;;24.45;14.78;;;;;;;-0.03;94.04;99999.66;1736568;82;21141;-89
2021/01/06 00:33:34;;;;;;;24.15;15.63;;;;;;;-0.02;94.04;100003.11;1736264;82;21171;-88
2021/01/06 00:36:10;;;;;;;29.30;15.83;;;;;;;-0.02;94.02;100000.02;1719584;82;21147;-89
2021/01/06 00:38:38;;;;;;;31.05;20.62;;;;;;;-0.01;94.02;100012.66;1729975;82;21587;-89
2021/01/06 00:41:06;;;;;;;33.70;26.60;;;;;;;0.00;94.03;100011.72;1734510;82;21143;-89
2021/01/06 00:43:33;;;;;;;33.28;25.88;;;;;;;0.01;94.03;100014.68;1734299;82;21176;-89
2021/01/06 00:46:01;;;;;;;36.98;28.23;;;;;;;0.00;94.03;100010.41;1734400;82;22049;-87
2021/01/06 00:48:28;;;;;;;35.03;20.57;;;;;;;0.00;94.04;100011.72;1734354;82;21546;-89
2021/01/06 00:50:55;;;;;;;31.37;17.92;;;;;;;-0.01;94.02;100015.28;1734251;82;21139;-88
2021/01/06 00:53:24;;;;;;;21.65;15.53;;;;;;;-0.02;94.01;100010.97;1729568;82;21135;-90
2021/01/06 00:55:52;;;;;;;27.27;17.65;;;;;;;0.00;94.03;100019.58;1742197;82;21601;-89
2021/01/06 00:58:20;;;;;;;21.23;14.65;;;;;;;-0.02;94.02;100007.89;1728848;83;21190;-89
2021/01/06 01:00:47;;;;;;;22.48;15.20;;;;;;;0.00;94.03;100013.84;1741984;82;21182;-88
2021/01/06 01:03:15;;;;;;;24.70;16.60;;;;;;;0.00;94.02;100008.59;1741867;82;21183;-89
2021/01/06 01:05:44;;;;;;;20.08;13.98;;;;;;;-0.01;94.03;99999.55;1743970;80;21136;-88
2021/01/06 01:08:11;;;;;;;17.70;10.90;;;;;;;-0.03;94.01;100007.98;1744566;82;21604;-88
2021/01/06 01:10:47;;;;;;;27.32;15.55;;;;;;;-0.06;94.04;100009.05;1744414;82;21335;-89
2021/01/06 01:13:19;;;;;;;34.10;25.72;;;;;;;-0.04;94.04;100014.20;1744184;82;21160;-88
2021/01/06 01:15:49;;;;;;;46.70;35.20;;;;;;;-0.01;94.06;100006.10;1744362;82;21155;-88
2021/01/06 01:18:19;;;;;;;46.60;34.18;;;;;;;-0.01;94.03;100006.10;1744435;82;21121;-88
2021/01/06 01:20:48;;;;;;;;;;;;;;;-0.01;94.04;100006.10;1747048;82;21538;-87
2021/01/06 01:23:18;;;;;;;31.25;20.60;;;;;;;-0.01;94.03;100000.86;1743135;82;21110;-89
2021/01/06 01:25:45;;;;;;;29.67;19.93;;;;;;;-0.03;94.04;99994.88;1744567;82;21124;-89
2021/01/06 01:28:15;;;;;;;78.12;43.33;;;;;;;-0.02;94.04;100000.49;1747142;81;21303;-88
2021/01/06 01:30:43;;;;;;;44.10;25.17;;;;;;;-0.01;94.06;99996.93;1756663;81;21162;-88
2021/01/06 01:33:12;;;;;;;31.75;17.15;;;;;;;0.00;94.06;99997.30;1756780;81;21139;-89
2021/01/06 01:35:40;;;;;;;;;;;;;;;-0.01;94.04;100003.48;1759670;81;21781;-88
2021/01/06 01:38:07;;;;;;;25.43;16.50;;;;;;;-0.03;94.06;100005.36;1756996;81;20269;-90
2021/01/06 01:40:38;;;;;;;24.18;15.90;;;;;;;-0.07;94.05;100002.13;1757135;81;21186;-89
2021/01/06 01:43:13;;;;;;;33.08;24.07;;;;;;;-0.09;94.04;100004.04;1756978;81;21143;-89
2021/01/06 01:45:52;;;;;;;35.70;25.90;;;;;;;-0.10;94.04;100000.20;1757038;81;21143;-89
2021/01/06 01:48:41;;;;;;;31.27;22.90;;;;;;;-0.12;94.04;99999.50;1749001;81;21200;-89
2021/01/06 01:51:40;;;;;;;33.80;26.02;;;;;;;-0.12;94.03;99998.19;1737944;81;21165;-90
2021/01/06 01:54:10;;;;;;;29.77;20.63;;;;;;;-0.09;94.04;100003.20;1729960;81;21143;-89
2021/01/06 01:57:08;;;;;;;17.73;11.73;;;;;;;-0.09;94.02;100003.20;1729735;81;21362;-89
2021/01/06 02:00:07;;;;;;;18.90;11.75;;;;;;;-0.09;94.04;100004.52;1756972;81;21194;-89
2021/01/06 02:03:01;;;;;;;20.72;12.58;;;;;;;-0.07;94.04;100002.63;1757252;81;26258;-89
2021/01/06 02:05:40;;;;;;;20.85;12.03;;;;;;;-0.06;94.03;100002.97;1723856;81;21179;-89
2021/01/06 02:08:34;;;;;;;22.30;12.60;;;;;;;-0.07;94.05;99999.51;1692226;84;21187;-89
2021/01/06 02:11:05;;;;;;;24.80;14.58;;;;;;;-0.07;94.07;100005.25;1697084;84;21163;-89
2021/01/06 02:13:40;;;;;;;22.55;14.03;;;;;;;-0.06;94.05;100004.28;1722817;83;21179;-89
2021/01/06 02:16:34;;;;;;;26.48;13.85;;;;;;;-0.07;94.04;100011.30;1736266;81;21138;-89
2021/01/06 02:19:01;;;;;;;22.50;12.85;;;;;;;-0.03;94.06;100010.60;1756170;81;21146;-89
2021/01/06 02:21:28;;;;;;;29.05;14.47;;;;;;;0.00;94.04;100017.77;1756175;81;21556;-87
2021/01/06 02:23:57;;;;;;;24.85;13.85;;;;;;;0.05;94.04;100017.44;1756345;81;21554;-90
2021/01/06 02:26:26;;;;;;;26.33;14.15;;;;;;;0.04;94.04;100014.45;1756387;81;21174;-89
2021/01/06 02:28:55;;;;;;;19.40;12.80;;;;;;;0.04;94.04;100014.45;1756614;81;21976;-89
2021/01/06 02:31:22;;;;;;;19.65;12.55;;;;;;;0.05;94.05;100011.36;1750636;81;21420;-89
2021/01/06 02:33:50;;;;;;;19.05;11.20;;;;;;;0.04;94.06;100007.89;1752027;81;21158;-88
2021/01/06 02:36:18;;;;;;;20.85;12.13;;;;;;;0.04;94.05;100007.05;1747133;81;21773;-89
2021/01/06 02:38:45;;;;;;;23.75;13.72;;;;;;;0.00;94.06;100002.05;1720468;83;21096;-89
2021/01/06 02:41:12;;;;;;;23.83;14.80;;;;;;;-0.04;94.07;100001.09;1735148;81;21155;-89
2021/01/06 02:43:39;;;;;;;23.85;13.13;;;;;;;-0.07;94.08;100000.82;1724312;83;21192;-89
2021/01/06 02:46:07;;;;;;;23.67;13.43;;;;;;;-0.06;94.09;100001.66;1756280;81;21123;-89
2021/01/06 02:48:35;;;;;;;18.80;13.00;;;;;;;-0.04;94.08;99998.47;1756132;81;21127;-89
2021/01/06 02:51:07;;;;;;;18.48;10.78;;;;;;;-0.03;94.08;99997.50;1696628;83;21178;-89
2021/01/06 02:53:40;;;;;;;17.20;9.90;;;;;;;-0.04;94.08;99998.47;1696751;83;21633;-89
2021/01/06 02:56:07;;;;;;;16.30;10.53;;;;;;;-0.03;94.08;99993.57;1723169;83;21149;-88
2021/01/06 02:58:34;;;;;;;16.52;9.95;;;;;;;-0.01;94.09;99991.22;1752824;81;21574;-89
2021/01/06 03:01:01;;;;;;;16.87;10.28;;;;;;;-0.02;94.11;99996.56;1713082;82;21157;-89
2021/01/06 03:03:32;;;;;;;18.80;10.65;;;;;;;0.00;94.09;99997.30;1734758;82;21498;-89
2021/01/06 03:06:12;;;;;;;20.17;10.58;;;;;;;0.02;94.11;99986.22;1737131;82;21211;-88
2021/01/06 03:08:39;;;;;;;19.32;10.90;;;;;;;0.00;94.11;99989.44;1755123;81;21186;-88
2021/01/06 03:11:06;;;;;;;19.42;11.20;;;;;;;-0.02;94.10;99986.92;1700492;84;21198;-89
2021/01/06 03:13:34;;;;;;;23.30;12.18;;;;;;;0.00;94.11;99988.13;1700441;84;21686;-89
2021/01/06 03:16:01;;;;;;;23.50;13.25;;;;;;;0.02;94.10;99988.84;1751438;81;21594;-89
2021/01/06 03:18:28;;;;;;;22.35;12.82;;;;;;;0.02;94.12;99992.77;1694033;82;22368;-89
2021/01/06 03:21:00;;;;;;;23.02;13.53;;;;;;;0.04;94.12;99989.55;1701493;82;21160;-89
2021/01/06 03:23:32;;;;;;;19.25;11.97;;;;;;;0.04;94.11;99986.92;1746209;82;21168;-88
2021/01/06 03:26:04;;;;;;;19.02;11.28;;;;;;;0.07;94.13;99987.20;1719831;82;21613;-88
2021/01/06 03:28:32;;;;;;;18.55;11.75;;;;;;;0.05;94.13;99987.30;1746407;81;21148;-89
2021/01/06 03:31:00;;;;;;;22.05;11.43;;;;;;;0.03;94.14;99981.34;1716454;81;21196;-89
2021/01/06 03:33:35;;;;;;;21.75;11.93;;;;;;;0.01;94.13;99980.60;1714765;83;21714;-89
2021/01/06 03:36:08;;;;;;;26.12;13.43;;;;;;;0.04;94.12;99981.69;1669520;84;21630;-89
2021/01/06 03:38:42;;;;;;;20.27;11.10;;;;;;;0.03;94.14;99985.28;1747203;81;21164;-89
2021/01/06 03:41:09;;;;;;;17.98;9.95;;;;;;;0.00;94.15;99978.95;1713465;82;21176;-89
2021/01/06 03:43:41;;;;;;;21.27;11.45;;;;;;;0.02;94.14;99978.83;1737001;82;21155;-89
2021/01/06 03:46:25;;;;;;;19.27;10.35;;;;;;;0.03;94.13;99976.11;1752755;81;21140;-89
2021/01/06 03:49:06;;;;;;;24.60;12.05;;;;;;;0.09;94.13;99974.80;1739738;82;21148;-89
2021/01/06 03:51:44;;;;;;;23.80;12.20;;;;;;;0.13;94.14;99973.16;1745120;82;21120;-89
2021/01/06 03:54:43;;;;;;;20.17;11.85;;;;;;;0.12;94.15;99972.78;1711862;82;21593;-89
2021/01/06 03:57:10;;;;;;;22.93;14.13;;;;;;;0.09;94.15;99973.02;1746162;82;21608;-88
2021/01/06 03:59:38;;;;;;;37.35;20.25;;;;;;;0.07;94.15;99972.28;1742217;82;21200;-88
2021/01/06 04:02:28;;;;;;;34.80;20.97;;;;;;;0.13;94.16;99978.40;1736973;82;21127;-88
2021/01/06 04:05:08;;;;;;;22.98;12.53;;;;;;;0.18;94.16;99969.70;1753548;81;21195;-89
2021/01/06 04:07:40;;;;;;;17.77;10.90;;;;;;;0.19;94.15;99972.69;1718530;82;21160;-89
2021/01/06 04:10:11;;;;;;;20.88;11.12;;;;;;;0.19;94.16;99971.37;1753987;81;21174;-89
2021/01/06 04:12:39;;;;;;;17.40;10.20;;;;;;;0.21;94.17;99978.64;1731099;82;21194;-88
2021/01/06 04:15:09;;;;;;;20.17;10.20;;;;;;;0.19;94.16;99971.37;1730952;82;21187;-89
2021/01/06 04:17:38;;;;;;;17.52;9.90;;;;;;;0.16;94.18;99966.84;1730331;82;21227;-88
2021/01/06 04:20:18;;;;;;;15.68;9.43;;;;;;;0.14;94.18;99968.25;1687899;83;21165;-88
2021/01/06 04:22:53;;;;;;;18.67;10.30;;;;;;;0.12;94.18;99967.55;1721779;82;21170;-88
2021/01/06 04:25:40;;;;;;;18.17;10.85;;;;;;;0.20;94.32;99968.28;1708007;82;21878;-89
2021/01/06 04:28:23;;;;;;;21.42;11.28;;;;;;;0.21;94.17;99963.41;1731134;82;21198;-89
2021/01/06 04:30:57;;;;;;;25.40;13.35;;;;;;;0.16;94.16;99961.13;1712846;83;21168;-89
2021/01/06 04:33:31;;;;;;;29.42;14.73;;;;;;;0.19;94.16;99956.95;1712961;83;21144;-89
2021/01/06 04:36:06;;;;;;;28.35;16.87;;;;;;;0.17;94.17;99957.56;1730978;81;21149;-89
2021/01/06 04:38:40;;;;;;;25.00;14.90;;;;;;;0.15;94.18;99955.52;1699186;83;21675;-88
2021/01/06 04:41:38;;;;;;;24.45;15.13;;;;;;;0.19;94.17;99958.27;1725672;83;21168;-89
2021/01/06 04:44:33;;;;;;;26.68;13.80;;;;;;;0.20;94.17;99962.57;1725653;83;21143;-89
2021/01/06 04:47:29;;;;;;;27.15;14.53;;;;;;;0.16;94.17;99959.81;1725952;83;21131;-89
2021/01/06 04:50:25;;;;;;;26.17;13.05;;;;;;;0.15;94.19;99958.13;1694117;83;21159;-89
2021/01/06 04:53:22;;;;;;;27.30;14.18;;;;;;;0.13;94.19;99960.52;1725654;82;21176;-88
2021/01/06 04:55:54;;;;;;;29.15;15.93;;;;;;;0.13;94.20;99953.50;1725871;83;21200;-88
2021/01/06 04:58:51;;;;;;;31.07;16.90;;;;;;;0.10;94.18;99959.44;1725443;82;21186;-88
2021/01/06 05:02:02;;;;;;;33.75;16.25;;;;;;;0.12;94.18;99958.37;1725647;82;21564;-88
2021/01/06 05:04:37;;;;;;;33.05;16.05;;;;;;;0.13;94.16;99965.30;1725722;83;21226;-88
2021/01/06 05:07:20;;;;;;;27.80;14.05;;;;;;;0.14;94.15;99965.63;1717621;83;21600;-88
2021/01/06 05:10:08;;;;;;;26.27;13.55;;;;;;;0.16;94.14;99971.61;1725707;81;21420;-88
2021/01/06 05:12:43;;;;;;;24.37;11.85;;;;;;;0.15;94.13;99963.84;1725768;82;21581;-88
2021/01/06 05:15:15;;;;;;;29.65;14.43;;;;;;;0.19;94.13;99964.83;1699353;83;21171;-88
2021/01/06 05:17:43;;;;;;;24.55;13.40;;;;;;;0.18;94.12;99968.86;1725783;83;21156;-88
2021/01/06 05:20:10;;;;;;;26.37;13.58;;;;;;;0.13;94.12;99967.91;1725745;83;21159;-88
2021/01/06 05:22:38;;;;;;;27.42;13.93;;;;;;;0.13;94.13;99968.38;1725719;83;21471;-88
2021/01/06 05:25:06;;;;;;;30.55;14.07;;;;;;;0.13;94.13;99968.38;1725654;83;21136;-88
2021/01/06 05:27:38;;;;;;;27.70;15.23;;;;;;;0.11;94.15;99967.64;1725736;83;21155;-88
2021/01/06 05:30:21;;;;;;;25.27;13.10;;;;;;;0.11;94.16;99964.55;1725627;82;21966;-88
2021/01/06 05:32:49;;;;;;;27.25;14.78;;;;;;;0.16;94.17;99966.84;1701189;83;21572;-88
2021/01/06 05:35:20;;;;;;;24.43;14.90;;;;;;;0.21;94.19;99973.39;1725763;83;21135;-88
2021/01/06 05:37:56;;;;;;;17.12;10.63;;;;;;;0.22;94.16;99976.39;1725758;82;21172;-88
2021/01/06 05:40:24;;;;;;;22.05;12.70;;;;;;;0.16;94.18;99969.46;1725507;83;21572;-88
2021/01/06 05:42:54;;;;;;;18.82;11.18;;;;;;;0.21;94.20;99973.39;1725731;82;21846;-88
2021/01/06 05:45:26;;;;;;;;;;;;;;;0.22;94.20;99970.30;1728223;83;21159;-88
2021/01/06 05:47:57;;;;;;;19.50;11.57;;;;;;;0.25;94.20;99968.28;1725296;83;20271;-88
2021/01/06 05:50:36;;;;;;;17.85;10.60;;;;;;;0.29;94.18;99971.52;1725735;82;21591;-88
2021/01/06 05:53:32;;;;;;;19.90;11.97;;;;;;;0.30;94.17;99975.34;1725704;83;21132;-88
2021/01/06 05:56:04;;;;;;;20.05;12.43;;;;;;;0.33;94.15;99968.55;1725407;82;21234;-87
2021/01/06 05:58:37;;;;;;;21.70;12.65;;;;;;;0.38;94.17;99970.37;1725589;83;21158;-87
2021/01/06 06:01:44;;;;;;;17.70;11.05;;;;;;;0.43;94.15;99968.69;1676624;83;21167;-88
2021/01/06 06:04:35;;;;;;;19.52;11.38;;;;;;;0.43;94.15;99964.28;1713556;82;21569;-88
2021/01/06 06:07:16;;;;;;;21.93;10.60;;;;;;;0.42;94.16;99953.92;1721293;82;21136;-88
2021/01/06 06:10:19;;;;;;;22.60;11.78;;;;;;;0.38;94.20;99957.26;1720419;83;21585;-87
2021/01/06 06:13:04;;;;;;;25.52;13.30;;;;;;;0.32;94.18;99957.70;1720414;83;21180;-88
2021/01/06 06:15:49;;;;;;;22.00;11.60;;;;;;;0.32;94.21;99966.88;1703851;83;21128;-88
2021/01/06 06:18:42;;;;;;;26.23;12.55;;;;;;;0.33;94.20;99964.63;1716251;83;21131;-88
2021/01/06 06:21:55;;;;;;;34.45;18.17;;;;;;;0.41;94.20;99960.95;1720492;83;21143;-88
2021/01/06 06:24:51;;;;;;;33.33;18.37;;;;;;;0.52;94.21;99962.76;1719807;83;21911;-88
2021/01/06 06:27:47;;;;;;;30.02;14.03;;;;;;;0.49;94.23;99961.19;1694980;83;21147;-88
2021/01/06 06:30:29;;;;;;;32.93;16.57;;;;;;;0.53;94.26;99960.98;1720038;83;21159;-88
2021/01/06 06:32:56;;;;;;;33.58;18.02;;;;;;;0.61;94.23;99966.45;1719869;83;21148;-86
2021/01/06 06:35:34;;;;;;;37.03;21.12;;;;;;;0.64;94.23;99968.84;1754173;81;21131;-87
2021/01/06 06:38:05;;;;;;;36.95;19.12;;;;;;;0.66;94.26;99974.81;1755979;81;21664;-87
2021/01/06 06:41:03;;;;;;;30.70;15.23;;;;;;;0.70;94.24;99976.26;1755437;80;21584;-86
2021/01/06 06:43:41;;;;;;;28.07;14.18;;;;;;;0.72;94.24;99965.16;1756067;81;21119;-86
2021/01/06 06:46:44;;;;;;;21.93;11.78;;;;;;;0.68;94.25;99965.87;1756063;81;21102;-86
2021/01/06 06:49:34;;;;;;;20.05;9.78;;;;;;;0.61;94.28;99971.23;1756072;81;21127;-87
2021/01/06 06:52:43;;;;;;;25.60;11.95;;;;;;;0.65;94.29;99975.77;1756205;81;21154;-87
2021/01/06 06:55:40;;;;;;;20.02;9.40;;;;;;;0.69;94.31;99974.11;1754836;81;21182;-87
2021/01/06 06:58:28;;;;;;;21.85;11.57;;;;;;;0.72;94.30;99979.59;1755745;81;21155;-86
2021/01/06 07:00:56;;;;;;;30.20;15.40;;;;;;;0.73;94.31;99982.58;1756056;81;21123;-86
2021/01/06 07:03:25;;;;;;;22.80;12.93;;;;;;;0.65;94.33;99986.25;1755920;81;21139;-85
2021/01/06 07:05:59;;;;;;;22.33;12.63;;;;;;;0.55;94.32;99990.06;1723058;81;21274;-86
2021/01/06 07:08:44;;;;;;;22.00;11.03;;;;;;;0.59;94.29;99998.06;1733298;81;21135;-86
2021/01/06 07:11:31;;;;;;;22.73;12.60;;;;;;;0.58;94.33;100006.04;1733433;82;21151;-86
2021/01/06 07:14:07;;;;;;;26.05;13.83;;;;;;;0.55;94.31;100004.97;1732738;82;21143;-86
2021/01/06 07:16:57;;;;;;;28.17;13.25;;;;;;;0.47;94.30;100005.06;1707700;82;21685;-86
2021/01/06 07:19:38;;;;;;;31.62;15.28;;;;;;;0.44;94.28;100007.09;1733316;82;22000;-86
2021/01/06 07:22:34;;;;;;;33.13;16.00;;;;;;;0.43;94.27;100015.42;1733450;82;21159;-85
2021/01/06 07:25:19;;;;;;;29.80;15.18;;;;;;;0.39;94.27;100020.53;1733322;82;21156;-86
2021/01/06 07:28:01;;;;;;;31.50;15.08;;;;;;;0.42;94.27;100018.18;1733095;82;21140;-86
2021/01/06 07:32:56;;;;;;;36.30;17.20;;;;;;;0.55;94.25;100027.27;1852203;77;22116;-85
2021/01/06 07:35:25;;;;;;;38.88;18.70;;;;;;;0.50;94.23;100029.75;1788114;80;21116;-85
2021/01/06 07:38:06;;;;;;;40.40;19.12;;;;;;;0.48;94.24;100032.98;1787692;80;21252;-86
2021/01/06 07:40:41;;;;;;;41.30;18.35;;;;;;;0.45;94.21;100034.52;1778591;80;21203;-85
2021/01/06 07:43:18;;;;;;;45.70;20.02;;;;;;;0.45;94.22;100030.59;1725077;83;21196;-86
2021/01/06 07:45:53;;;;;;;38.90;20.30;;;;;;;0.47;94.21;100033.92;1756674;81;21123;-86
2021/01/06 07:48:45;;;;;;;44.35;22.10;;;;;;;0.45;94.18;100035.84;1698473;83;21151;-85
2021/01/06 07:51:26;;;;;;;90.80;43.17;;;;;;;0.41;94.18;100042.26;1756717;81;22059;-85
2021/01/06 07:54:12;;;;;;;101.75;47.33;;;;;;;0.40;94.17;100043.20;1724968;83;21212;-85
2021/01/06 07:57:28;;;;;;;55.92;24.92;;;;;;;0.40;94.17;100037.95;1756770;81;21203;-84
2021/01/06 07:59:57;;;;;;;47.25;25.37;;;;;;;0.44;94.14;100045.95;1678022;83;21161;-85
2021/01/06 08:02:31;;;;;;;54.45;29.70;;;;;;;0.46;94.14;100037.48;1727688;81;21206;-84
2021/01/06 08:05:24;;;;;;;55.40;31.45;;;;;;;0.50;94.12;100045.96;1725158;83;21260;-85
2021/01/06 08:08:06;;;;;;;56.85;32.00;;;;;;;0.53;94.11;100047.55;1755575;81;21151;-85
2021/01/06 08:10:33;;;;;;;46.97;25.13;;;;;;;0.54;94.10;100050.03;1756814;81;21151;-85
2021/01/06 08:13:19;;;;;;;47.88;29.32;;;;;;;0.56;94.12;100049.93;1725095;83;21148;-85
2021/01/06 08:15:52;;;;;;;38.00;26.52;;;;;;;0.60;94.11;100051.38;1757021;81;21115;-85
2021/01/06 08:18:30;;;;;;;48.75;30.25;;;;;;;0.61;94.12;100053.03;1725096;83;21205;-85
2021/01/06 08:21:13;;;;;;;30.90;19.12;;;;;;;0.62;94.13;100052.92;1756756;81;21159;-85
2021/01/06 08:23:53;;;;;;;42.08;22.50;;;;;;;0.64;94.12;100050.17;1725262;83;21175;-85
2021/01/06 08:26:27;;;;;;;42.13;24.05;;;;;;;0.64;94.13;100046.23;1756830;81;21139;-85
2021/01/06 08:29:27;;;;;;;52.17;28.20;;;;;;;0.63;94.13;100044.59;1725404;83;21173;-85
2021/01/06 08:31:59;;;;;;;;;;;;;;;0.61;94.10;100039.91;1762033;80;21253;-85
2021/01/06 08:34:31;;;;;;;40.38;20.82;;;;;;;0.61;94.12;100040.75;1735331;81;20534;-86
2021/01/06 08:37:12;;;;;;;39.33;23.40;;;;;;;0.66;94.14;100037.78;1815631;77;23323;-86
2021/01/06 08:39:54;;;;;;;32.65;20.92;;;;;;;0.65;94.12;100041.36;1787741;80;21197;-87
2021/01/06 08:42:27;;;;;;;34.55;21.10;;;;;;;0.69;94.12;100036.23;1757055;80;22154;-86
2021/01/06 08:45:00;;;;;;;43.20;21.97;;;;;;;0.70;94.13;100039.23;1756913;81;21167;-86
2021/01/06 08:47:31;;;;;;;32.35;19.52;;;;;;;0.72;94.14;100040.78;1756972;81;21115;-87
2021/01/06 08:50:18;;;;;;;38.92;22.52;;;;;;;0.73;94.18;100040.30;1756872;81;21158;-87
2021/01/06 08:52:54;;;;;;;38.20;19.73;;;;;;;0.71;94.17;100035.63;1757127;81;21131;-87
2021/01/06 08:55:36;;;;;;;42.25;19.27;;;;;;;0.69;94.18;100041.02;1756819;81;21467;-87
2021/01/06 08:58:05;;;;;;;43.30;22.32;;;;;;;0.69;94.16;100037.08;1756811;81;21191;-87
2021/01/06 09:00:41;;;;;;;40.30;23.45;;;;;;;0.73;94.17;100038.52;1756971;81;21187;-87
2021/01/06 09:03:28;;;;;;;39.70;21.75;;;;;;;0.77;94.16;100047.00;1756770;81;21134;-86
2021/01/06 09:06:11;;;;;;;41.37;20.02;;;;;;;0.80;94.17;100046.29;1757080;80;21139;-87
2021/01/06 09:08:44;;;;;;;33.80;18.52;;;;;;;0.90;94.18;100050.35;1729952;81;21291;-86
2021/01/06 09:11:21;;;;;;;53.98;26.42;;;;;;;0.94;94.17;100049.17;1756881;81;21178;-87
2021/01/06 09:14:30;;;;;;;60.98;27.48;;;;;;;0.97;94.17;100047.62;1704843;81;21583;-87
2021/01/06 09:17:21;;;;;;;116.10;54.50;;;;;;;0.97;94.17;100050.25;1756642;81;21156;-86
2021/01/06 09:20:11;;;;;;;78.95;39.30;;;;;;;0.98;94.18;100048.83;1727475;81;21135;-87
2021/01/06 09:22:38;;;;;;;46.45;24.20;;;;;;;0.99;94.19;100050.47;1756855;81;21202;-86
2021/01/06 09:25:05;;;;;;;45.10;24.20;;;;;;;0.97;94.21;100042.37;1756717;81;21136;-86
2021/01/06 09:27:40;;;;;;;43.92;23.25;;;;;;;0.94;94.22;100041.30;1757011;81;21127;-85
2021/01/06 09:30:27;;;;;;;41.63;22.70;;;;;;;0.94;94.21;100043.92;1756785;81;21576;-86
2021/01/06 09:32:54;;;;;;;51.68;30.15;;;;;;;0.92;94.21;100042.71;1756868;81;21159;-87
2021/01/06 09:35:31;;;;;;;132.97;62.23;;;;;;;0.98;94.22;100047.98;1756708;81;22067;-86
2021/01/06 09:38:20;;;;;;;95.12;46.58;;;;;;;1.02;94.22;100043.34;1756108;81;21151;-85
2021/01/06 09:40:47;;;;;;;74.53;37.78;;;;;;;1.01;94.21;100050.37;1756854;80;21191;-86
2021/01/06 09:43:47;;;;;;;38.63;22.20;;;;;;;0.95;94.21;100043.78;1756611;81;21155;-86
2021/01/06 09:46:56;;;;;;;48.38;26.12;;;;;;;0.95;94.21;100049.03;1756424;81;21155;-86
2021/01/06 09:49:43;;;;;;;41.53;22.80;;;;;;;0.91;94.24;100049.41;1756166;81;22016;-86
2021/01/06 09:52:31;;;;;;;37.50;20.50;;;;;;;0.92;94.25;100043.19;1755912;81;21191;-86
2021/01/06 09:54:57;;;;;;;37.67;18.92;;;;;;;0.91;94.27;100038.91;1726396;81;22109;-86
2021/01/06 09:57:24;;;;;;;42.00;23.80;;;;;;;0.93;94.26;100043.55;1756104;81;21168;-85
2021/01/06 09:59:55;;;;;;;44.58;24.02;;;;;;;0.97;94.24;100039.74;1756106;81;21162;-85
2021/01/06 10:02:27;;;;;;;54.98;26.97;;;;;;;0.99;94.28;100045.70;1756000;81;21248;-85
2021/01/06 10:04:59;;;;;;;66.35;32.13;;;;;;;1.01;94.27;100038.56;1755818;81;21723;-86
2021/01/06 10:07:48;;;;;;;53.20;26.02;;;;;;;1.03;94.23;100032.70;1755933;81;21147;-86
2021/01/06 10:10:31;;;;;;;41.58;21.20;;;;;;;1.03;94.23;100031.39;1726576;81;21167;-86
2021/01/06 10:13:24;;;;;;;52.73;28.05;;;;;;;1.04;94.22;100025.19;1755704;81;21613;-87
2021/01/06 10:16:25;;;;;;;48.55;24.75;;;;;;;1.08;94.21;100021.38;1756102;81;21195;-87
2021/01/06 10:19:32;;;;;;;48.85;26.02;;;;;;;1.12;94.22;100028.06;1756029;81;21131;-87
2021/01/06 10:22:16;;;;;;;67.80;40.12;;;;;;;1.13;94.23;100022.31;1755929;81;21631;-86
2021/01/06 10:25:00;;;;;;;111.22;59.13;;;;;;;1.12;94.22;100024.60;1756095;81;21553;-87
2021/01/06 10:27:55;;;;;;;68.15;35.17;;;;;;;1.17;94.24;100018.02;1755512;81;21621;-86
2021/01/06 10:30:24;;;;;;;57.35;29.25;;;;;;;1.14;94.23;100015.64;1755886;81;21192;-86
2021/01/06 10:33:19;;;;;;;46.95;26.17;;;;;;;1.16;94.24;100011.09;1755560;81;21206;-86
2021/01/06 10:36:06;;;;;;;61.63;32.48;;;;;;;1.17;94.23;100006.20;1756583;81;21250;-86
2021/01/06 10:38:38;;;;;;;86.15;43.10;;;;;;;1.23;94.22;100007.53;1761427;81;21586;-86
2021/01/06 10:41:28;;;;;;;88.35;39.53;;;;;;;1.27;94.20;100001.90;1761708;80;21163;-86
2021/01/06 10:44:00;;;;;;;116.53;42.33;;;;;;;1.30;94.17;99999.53;1758623;81;21154;-87
2021/01/06 10:46:50;;;;;;;214.00;70.12;;;;;;;1.32;94.15;99999.76;1761407;81;21131;-86
2021/01/06 10:49:25;;;;;;;86.17;35.52;;;;;;;1.31;94.12;100003.33;1743692;80;21167;-87
2021/01/06 10:52:03;;;;;;;51.75;21.33;;;;;;;1.33;94.12;100006.69;1753056;81;21621;-85
2021/01/06 10:54:40;;;;;;;32.23;16.67;;;;;;;1.36;94.10;100006.92;1744135;81;21211;-86
2021/01/06 10:57:44;;;;;;;38.78;18.50;;;;;;;1.35;94.11;100006.08;1749448;81;21775;-86
2021/01/06 11:00:23;;;;;;;35.35;17.05;;;;;;;1.39;94.08;100001.42;1748374;80;21163;-86
2021/01/06 11:03:18;;;;;;;31.07;16.48;;;;;;;1.38;94.10;100001.05;1746267;80;21494;-86
2021/01/06 11:05:56;;;;;;;34.23;16.55;;;;;;;1.34;94.09;100000.45;1698537;81;21593;-87
2021/01/06 11:08:48;;;;;;;61.48;27.82;;;;;;;1.36;94.11;100005.13;1747376;81;21210;-87
2021/01/06 11:11:40;;;;;;;89.97;36.08;;;;;;;1.38;94.11;100003.20;1749758;80;21240;-87
2021/01/06 11:14:29;;;;;;;62.35;26.30;;;;;;;1.40;94.13;100003.09;1754482;80;21154;-86
2021/01/06 11:17:00;;;;;;;33.45;18.55;;;;;;;1.42;94.11;100003.32;1745463;81;21211;-88
2021/01/06 11:19:47;;;;;;;32.13;18.55;;;;;;;1.44;94.10;99994.02;1734567;80;21403;-87
2021/01/06 11:22:39;;;;;;;31.20;17.85;;;;;;;1.42;94.12;99989.34;1745318;80;21567;-87
2021/01/06 11:25:49;;;;;;;29.07;15.98;;;;;;;1.38;94.14;99995.33;1748074;80;22157;-85
2021/01/06 11:28:55;;;;;;;29.60;17.52;;;;;;;1.38;94.13;99987.44;1743871;81;21176;-85
2021/01/06 11:31:30;;;;;;;30.72;16.30;;;;;;;1.38;94.10;99990.07;1709097;80;21198;-85
2021/01/06 11:34:00;;;;;;;28.40;16.23;;;;;;;1.37;94.09;99991.02;1753964;81;21647;-84
2021/01/06 11:36:38;;;;;;;40.70;22.32;;;;;;;1.42;94.10;99984.94;1744928;80;21611;-84
2021/01/06 11:39:11;;;;;;;32.00;18.98;;;;;;;1.45;94.11;99981.22;1751483;80;21283;-84
2021/01/06 11:42:05;;;;;;;37.90;19.32;;;;;;;1.41;94.12;99976.69;1748014;81;21192;-84
2021/01/06 11:44:39;;;;;;;33.35;18.82;;;;;;;1.41;94.12;99975.38;1759498;81;21135;-84
2021/01/06 11:47:29;;;;;;;40.55;18.55;;;;;;;1.38;94.12;99977.41;1735018;81;21142;-83
2021/01/06 11:50:25;;;;;;;38.78;20.30;;;;;;;1.36;94.11;99974.92;1730805;82;21175;-84
2021/01/06 11:52:51;;;;;;;50.17;22.27;;;;;;;1.39;94.11;99977.30;1762559;80;22189;-83
2021/01/06 11:55:42;;;;;;;56.83;26.25;;;;;;;1.41;94.12;99975.38;1766025;80;21685;-83
2021/01/06 11:58:20;;;;;;;48.28;23.90;;;;;;;1.39;94.15;99973.36;1764530;80;21182;-82
2021/01/06 12:01:01;;;;;;;59.30;27.15;;;;;;;1.39;94.16;99973.36;1770938;80;21599;-83
2021/01/06 12:03:59;;;;;;;59.75;29.37;;;;;;;1.44;94.16;99969.87;1754415;80;21207;-85
2021/01/06 12:06:52;;;;;;;69.25;33.33;;;;;;;1.49;94.17;99967.72;1758147;81;21232;-85
2021/01/06 12:09:53;;;;;;;64.22;30.43;;;;;;;1.53;94.19;99960.91;1747447;81;21154;-84
2021/01/06 12:12:51;;;;;;;59.77;28.92;;;;;;;1.44;94.21;99969.87;1749295;80;21236;-84
2021/01/06 12:15:35;;;;;;;92.30;36.03;;;;;;;1.34;94.25;99962.37;1763403;81;21206;-84
2021/01/06 12:18:02;;;;;;;58.95;29.05;;;;;;;1.28;94.27;99970.75;1759812;81;21128;-83